KPIT/PIT METAR and TAF weather

Enter ICAO airport designator
Station Type Date Time Source
KPIT METAR 2019/06/16 11:51 UTC NOAA

KPIT 161151Z 23013G20KT 10SM OVC014 19/18 A2982 RMK AO2 SLP099 60011 70017 T01940178 10194 20178 53004 $


Station Type Date Time Source
KPIT Decoded METAR 2019/06/16 11:51 UTC NOAA

GREATER PITTSBURGH INTERNATIONAL , PA, United States (KPIT) 40-29N 80-14W 357M
Jun 16, 2019 - 07:51 AM EDT / 2019.06.16 1151 UTC
Wind: from the SW (230 degrees) at 15 MPH (13 KT) gusting to 23 MPH (20 KT):0
Visibility: 10 mile(s):0
Sky conditions: overcast
Temperature: 66.9 F (19.4 C)
Dew Point: 64.0 F (17.8 C)
Relative Humidity: 90%
Pressure (altimeter): 29.82 in. Hg (1009 hPa)
Pressure tendency: 0.01 inches (0.4 hPa) higher than three hours ago
ob: KPIT 161151Z 23013G20KT 10SM OVC014 19/18 A2982 RMK AO2 SLP099 60011 70017 T01940178 10194 20178 53004
cycle: 12

Station Type Date Time Source
KPIT TAF 2019/06/16 12:36 UTC NOAA

TAF KPIT 161135Z 1612/1718 22014G20KT P6SM OVC015
FM161600 25007KT 6SM -SHRA VCTS BKN015CB
FM161800 24007KT P6SM BKN025
FM170300 VRB03KT P6SM -SHRA VCTS OVC025CB
FM170600 VRB03KT 5SM BR VCSH BKN010
FM171300 VRB03KT P6SM VCSH OVC020

Example: see airport list